Time;durP1;ratioP1;P1;durP2;ratioP2;P2;SDS_P1;SDS_P2;PMS_P1;PMS_P2;Temp;Humidity;BMP_temperature;BMP_pressure;BME280_temperature;BME280_humidity;BME280_pressure;Samples;Min_cycle;Max_cycle;Signal;HPM_P1;HPM_P2
2021/07/16 00:00:25;;;;;;;2.05;1.50;;;;;;;18.98;81.81;100183.91;10266396;28;20050;-67
2021/07/16 00:05:26;;;;;;;2.33;2.10;;;;;;;18.93;81.65;100185.47;10266879;28;20050;-67
2021/07/16 00:10:28;;;;;;;3.20;2.38;;;;;;;18.95;81.98;100189.66;10274164;28;20055;-66
2021/07/16 00:15:30;;;;;;;2.70;2.03;;;;;;;18.96;82.22;100183.28;10278941;28;20085;-67
2021/07/16 00:20:32;;;;;;;4.03;1.90;;;;;;;18.96;81.86;100172.47;10279876;28;20054;-66
2021/07/16 00:25:33;;;;;;;1.98;1.58;;;;;;;18.97;82.21;100176.84;10275807;28;20073;-66
2021/07/16 00:30:35;;;;;;;4.30;2.20;;;;;;;18.98;82.11;100178.53;10276069;28;20429;-66
2021/07/16 00:35:37;;;;;;;2.30;1.90;;;;;;;18.95;82.23;100184.28;10279638;28;20054;-66
2021/07/16 00:40:40;;;;;;;4.47;2.20;;;;;;;18.91;82.54;100177.56;10277269;28;20457;-66
2021/07/16 00:45:42;;;;;;;2.83;1.90;;;;;;;18.89;82.71;100191.22;10275758;28;20066;-66
2021/07/16 00:50:44;;;;;;;3.85;2.40;;;;;;;18.92;82.49;100183.81;10270899;28;20277;-67
2021/07/16 00:55:46;;;;;;;4.47;2.03;;;;;;;18.90;82.67;100198.31;10277548;28;20046;-66
2021/07/16 01:00:48;;;;;;;3.97;2.55;;;;;;;18.89;82.98;100201.19;10281670;28;20055;-67
2021/07/16 01:05:49;;;;;;;5.88;2.95;;;;;;;18.87;83.25;100212.16;10280529;28;20051;-67
2021/07/16 01:10:51;;;;;;;4.50;2.47;;;;;;;18.86;83.38;100205.06;10272150;28;20065;-66
2021/07/16 01:15:55;;;;;;;3.40;2.95;;;;;;;18.81;83.06;100217.38;10279608;28;20049;-65
2021/07/16 01:20:57;;;;;;;4.43;2.70;;;;;;;18.81;83.10;100226.31;10275191;28;20061;-66
2021/07/16 01:25:59;;;;;;;2.70;2.30;;;;;;;18.81;83.39;100236.25;10277661;28;20085;-65
2021/07/16 01:31:00;;;;;;;4.75;3.38;;;;;;;18.83;84.25;100226.13;10277442;28;20051;-67
2021/07/16 01:36:02;;;;;;;3.92;3.13;;;;;;;18.86;84.92;100202.38;10275284;28;20059;-68
2021/07/16 01:41:04;;;;;;;5.95;3.75;;;;;;;18.80;86.99;100202.22;10264071;28;20650;-67
2021/07/16 01:46:06;;;;;;;5.95;3.60;;;;;;;18.70;87.06;100202.44;10274411;28;20043;-67
2021/07/16 01:51:07;;;;;;;3.47;2.92;;;;;;;18.60;87.90;100210.78;10271718;28;20050;-66
2021/07/16 01:56:09;;;;;;;6.20;3.72;;;;;;;18.61;88.62;100208.91;10270687;28;20058;-66
2021/07/16 02:01:14;;;;;;;4.82;3.50;;;;;;;18.69;88.79;100215.09;10274824;28;20051;-67
2021/07/16 02:06:16;;;;;;;6.05;4.03;;;;;;;18.67;88.29;100233.28;10272023;28;20581;-67
2021/07/16 02:11:21;;;;;;;12.60;4.47;;;;;;;18.69;88.26;100230.41;10265425;28;20062;-67
2021/07/16 02:16:22;;;;;;;11.65;5.32;;;;;;;18.71;88.91;100221.13;10280817;28;20057;-67
2021/07/16 02:21:24;;;;;;;6.45;3.38;;;;;;;18.73;88.82;100202.09;10274457;28;20502;-68
2021/07/16 02:26:25;;;;;;;7.18;4.22;;;;;;;18.79;88.76;100201.38;10275084;28;20051;-68
2021/07/16 02:31:27;;;;;;;6.00;3.95;;;;;;;18.78;89.17;100201.53;10272459;28;20081;-68
2021/07/16 02:36:28;;;;;;;8.63;4.78;;;;;;;18.71;89.86;100204.13;10268333;28;20046;-68
2021/07/16 02:41:30;;;;;;;7.20;4.28;;;;;;;18.59;89.73;100211.78;10270760;28;20054;-68
2021/07/16 02:46:31;;;;;;;4.80;2.97;;;;;;;18.55;91.04;100213.13;10273548;28;20042;-67
2021/07/16 02:51:36;;;;;;;4.90;3.35;;;;;;;18.49;90.50;100221.94;10266000;28;20057;-68
2021/07/16 02:56:37;;;;;;;4.10;3.15;;;;;;;18.50;90.69;100229.84;10259636;28;20425;-67
2021/07/16 03:01:55;;;;;;;4.68;3.00;;;;;;;18.49;90.91;100228.16;10267029;28;20235;-67
2021/07/16 03:06:58;;;;;;;4.60;3.20;;;;;;;18.47;90.80;100229.38;10270440;28;20553;-68
2021/07/16 03:12:02;;;;;;;3.53;3.00;;;;;;;18.45;90.11;100231.38;10268156;28;20106;-67
2021/07/16 03:17:04;;;;;;;4.45;3.45;;;;;;;18.40;89.57;100247.25;10260290;28;20055;-67
2021/07/16 03:22:06;;;;;;;6.00;3.50;;;;;;;18.35;90.31;100245.91;10263600;28;20457;-66
2021/07/16 03:27:07;;;;;;;3.75;3.08;;;;;;;18.31;90.70;100241.88;10267724;28;20051;-66
2021/07/16 03:32:09;;;;;;;4.47;2.85;;;;;;;18.31;90.81;100241.88;10262291;28;20051;-66
2021/07/16 03:37:10;;;;;;;5.65;3.13;;;;;;;18.36;91.69;100244.06;10261390;28;20559;-67
2021/07/16 03:42:12;;;;;;;4.75;3.08;;;;;;;18.36;91.34;100261.06;10269771;28;20632;-67
2021/07/16 03:47:15;;;;;;;6.90;3.65;;;;;;;18.43;90.87;100252.28;10275096;28;20083;-67
2021/07/16 03:52:16;;;;;;;6.27;3.63;;;;;;;18.43;91.17;100244.19;10278922;28;20079;-67
2021/07/16 03:57:19;;;;;;;4.50;3.85;;;;;;;18.46;90.75;100254.63;10279288;28;20576;-68
2021/07/16 04:02:20;;;;;;;7.63;4.57;;;;;;;18.45;90.75;100247.53;10277339;28;20054;-67
2021/07/16 04:07:26;;;;;;;6.35;4.35;;;;;;;18.48;90.45;100248.06;10281847;28;20409;-68
2021/07/16 04:12:28;;;;;;;10.50;4.55;;;;;;;18.53;89.84;100250.22;10276954;28;20058;-66
2021/07/16 04:17:32;;;;;;;5.93;4.38;;;;;;;18.57;90.53;100256.94;10293332;28;20042;-67
2021/07/16 04:22:33;;;;;;;4.87;3.83;;;;;;;18.63;89.72;100255.38;10282160;28;20066;-68
2021/07/16 04:27:35;;;;;;;5.97;4.03;;;;;;;18.69;89.78;100262.75;10280631;28;20165;-67
2021/07/16 04:32:38;;;;;;;8.45;3.95;;;;;;;18.79;89.31;100266.09;10267279;28;20722;-67
2021/07/16 04:37:40;;;;;;;5.90;4.53;;;;;;;18.88;89.17;100265.03;10269281;28;20077;-67
2021/07/16 04:42:42;;;;;;;6.85;3.95;;;;;;;18.94;88.91;100274.28;10273065;28;20050;-66
2021/07/16 04:47:44;;;;;;;4.65;3.20;;;;;;;18.96;89.05;100279.50;10277197;28;20054;-66
2021/07/16 04:52:48;;;;;;;5.55;3.72;;;;;;;18.97;88.99;100275.81;10268666;28;20425;-67
2021/07/16 04:57:50;;;;;;;8.50;4.00;;;;;;;18.98;89.24;100274.78;10274789;28;20051;-67
2021/07/16 05:02:51;;;;;;;5.80;3.88;;;;;;;19.08;89.22;100278.94;10275886;28;20043;-66
2021/07/16 05:07:53;;;;;;;4.95;4.07;;;;;;;19.07;88.68;100293.44;10264725;28;20473;-67
2021/07/16 05:12:55;;;;;;;5.40;4.50;;;;;;;19.04;88.85;100301.88;10266348;28;20676;-68
2021/07/16 05:17:56;;;;;;;5.07;4.45;;;;;;;19.06;88.42;100302.53;10268760;28;20054;-67
2021/07/16 05:22:58;;;;;;;5.72;4.45;;;;;;;19.13;88.53;100291.06;10259373;28;20054;-67
2021/07/16 05:27:59;;;;;;;7.18;4.03;;;;;;;19.23;88.08;100305.13;10265279;28;20055;-67
2021/07/16 05:33:01;;;;;;;5.50;3.83;;;;;;;19.27;88.04;100311.84;10261814;28;20047;-66
2021/07/16 05:38:03;;;;;;;7.95;4.53;;;;;;;19.32;87.25;100322.97;10255499;28;20486;-67
2021/07/16 05:43:09;;;;;;;7.57;5.25;;;;;;;19.30;87.58;100327.69;10263754;28;20081;-67
2021/07/16 05:48:11;;;;;;;8.27;5.80;;;;;;;19.31;87.87;100328.53;10270556;28;20063;-67
2021/07/16 05:53:14;;;;;;;6.03;5.20;;;;;;;19.33;87.51;100342.69;10276850;28;20460;-67
2021/07/16 05:58:16;;;;;;;10.32;6.38;;;;;;;19.38;87.68;100335.75;10267131;28;20046;-67
2021/07/16 06:03:19;;;;;;;7.75;5.60;;;;;;;19.38;87.76;100349.25;10267805;28;20112;-68
2021/07/16 06:08:21;;;;;;;11.52;6.28;;;;;;;19.37;87.51;100350.25;10256167;28;20058;-67
2021/07/16 06:13:24;;;;;;;9.32;5.38;;;;;;;19.55;87.52;100352.66;10277263;28;20046;-68
2021/07/16 06:18:25;;;;;;;8.05;4.97;;;;;;;19.74;86.72;100345.94;10282525;28;20070;-67
2021/07/16 06:23:27;;;;;;;5.35;4.82;;;;;;;19.94;86.24;100361.66;10258313;28;20046;-67
2021/07/16 06:28:28;;;;;;;9.63;4.80;;;;;;;20.06;85.68;100357.50;10272836;28;20046;-68
2021/07/16 06:33:30;;;;;;;10.43;4.93;;;;;;;20.01;84.72;100368.03;10257615;28;20057;-67
2021/07/16 06:38:31;;;;;;;7.50;4.60;;;;;;;19.84;84.78;100355.69;10268714;28;20069;-68
2021/07/16 06:43:33;;;;;;;7.88;5.50;;;;;;;19.88;85.29;100379.44;10270635;28;20551;-68
2021/07/16 06:48:35;;;;;;;7.93;5.28;;;;;;;19.90;86.15;100387.38;10270097;28;20108;-67
2021/07/16 06:53:37;;;;;;;5.75;4.10;;;;;;;20.18;85.21;100374.13;10285300;28;20050;-67
2021/07/16 06:58:38;;;;;;;7.43;5.30;;;;;;;20.60;83.35;100382.66;10261128;28;20070;-68
2021/07/16 07:03:40;;;;;;;9.30;5.00;;;;;;;20.73;83.37;100387.41;10272750;28;20047;-68
2021/07/16 07:08:41;;;;;;;7.68;5.18;;;;;;;20.74;83.56;100391.81;10278742;28;20571;-68
2021/07/16 07:13:43;;;;;;;8.15;6.07;;;;;;;20.75;84.03;100388.91;10280706;28;20195;-68
2021/07/16 07:18:45;;;;;;;13.68;6.57;;;;;;;20.74;84.08;100406.16;10289429;28;20042;-68
2021/07/16 07:23:47;;;;;;;9.65;5.45;;;;;;;20.56;84.21;100417.31;10288097;28;20567;-68
2021/07/16 07:28:48;;;;;;;8.60;5.20;;;;;;;20.44;85.27;100408.81;10286533;28;20437;-68
2021/07/16 07:33:50;;;;;;;10.98;6.03;;;;;;;20.34;85.62;100410.94;10272074;28;20078;-68
2021/07/16 07:38:52;;;;;;;8.20;6.68;;;;;;;20.43;85.88;100426.09;10279981;28;20054;-68
2021/07/16 07:43:54;;;;;;;8.25;5.82;;;;;;;20.65;85.59;100424.34;10277872;28;20073;-67
2021/07/16 07:48:56;;;;;;;7.63;6.35;;;;;;;20.94;84.60;100408.31;10279007;28;20063;-68
2021/07/16 07:53:57;;;;;;;7.28;6.22;;;;;;;21.26;83.35;100419.72;10281665;28;20050;-68
2021/07/16 07:59:05;;;;;;;7.22;6.05;;;;;;;21.32;83.35;100427.94;10278493;28;20050;-68
2021/07/16 08:04:06;;;;;;;11.20;6.50;;;;;;;21.36;83.22;100433.81;10272354;28;20421;-67
2021/07/16 08:09:11;;;;;;;10.93;7.68;;;;;;;21.46;82.83;100426.22;10282149;28;20054;-68
2021/07/16 08:14:13;;;;;;;11.35;9.50;;;;;;;21.49;81.44;100428.56;10285505;28;20512;-68
2021/07/16 08:19:17;;;;;;;9.48;8.43;;;;;;;21.78;81.01;100434.94;10284166;28;20050;-70
2021/07/16 08:24:20;;;;;;;13.45;9.48;;;;;;;22.32;78.74;100438.16;10282926;28;20053;-68
2021/07/16 08:29:23;;;;;;;;;;;;;;;22.95;77.32;100449.03;10283123;28;20043;-69
2021/07/16 08:34:24;;;;;;;11.25;8.57;;;;;;;23.28;74.14;100437.53;10284582;28;20002;-68
2021/07/16 08:39:26;;;;;;;11.73;8.80;;;;;;;23.43;72.78;100437.38;10277736;28;20061;-68
2021/07/16 08:44:29;;;;;;;11.05;8.68;;;;;;;23.68;71.90;100442.28;10279539;28;20056;-68
2021/07/16 08:49:33;;;;;;;10.50;8.25;;;;;;;24.10;69.23;100445.72;10283620;28;20082;-68
2021/07/16 08:54:44;;;;;;;9.50;7.97;;;;;;;24.09;69.77;100453.00;10286269;28;20509;-69
2021/07/16 08:59:45;;;;;;;11.02;8.68;;;;;;;24.07;68.64;100443.41;10281280;28;20131;-69
2021/07/16 09:04:47;;;;;;;10.50;8.48;;;;;;;24.02;68.65;100440.47;10275871;28;20047;-68
2021/07/16 09:09:48;;;;;;;9.55;8.55;;;;;;;23.90;68.56;100449.25;10279027;28;20057;-69
2021/07/16 09:14:51;;;;;;;8.68;7.88;;;;;;;23.36;69.83;100442.81;10282442;28;20059;-69
2021/07/16 09:19:52;;;;;;;7.40;6.72;;;;;;;23.18;70.92;100440.63;10277455;28;20137;-69
2021/07/16 09:24:56;;;;;;;7.95;6.88;;;;;;;23.18;71.10;100446.06;10278585;28;20046;-69
2021/07/16 09:30:21;;;;;;;7.43;6.25;;;;;;;23.89;70.71;100441.31;10274329;28;20043;-69
2021/07/16 09:35:32;;;;;;;6.93;6.32;;;;;;;24.74;66.21;100443.38;10275206;28;20481;-69
2021/07/16 09:40:38;;;;;;;7.82;7.03;;;;;;;24.92;63.50;100449.03;10277409;28;20055;-69
2021/07/16 09:45:43;;;;;;;7.95;6.80;;;;;;;24.51;65.56;100441.94;10274701;28;20462;-70
2021/07/16 09:50:45;;;;;;;6.95;6.35;;;;;;;25.11;64.68;100450.00;10273048;28;20070;-70
2021/07/16 09:55:46;;;;;;;6.50;5.90;;;;;;;25.58;63.72;100447.09;10279607;28;20054;-70
2021/07/16 10:00:50;;;;;;;6.82;6.03;;;;;;;25.35;61.42;100459.34;10279159;28;20130;-69
2021/07/16 10:05:54;;;;;;;8.13;7.30;;;;;;;25.61;60.19;100468.44;10277752;28;21634;-70
2021/07/16 10:10:57;;;;;;;5.82;5.32;;;;;;;26.12;59.85;100469.44;10271562;28;20055;-70
2021/07/16 10:15:59;;;;;;;6.57;5.97;;;;;;;26.18;59.19;100467.72;10281891;28;20116;-68
2021/07/16 10:21:01;;;;;;;6.85;6.25;;;;;;;25.95;57.54;100477.28;10353740;22;20056;-66
2021/07/16 10:26:06;;;;;;;6.60;5.53;;;;;;;26.06;58.79;100468.44;10355406;28;20451;-66
2021/07/16 10:31:38;;;;;;;6.43;5.45;;;;;;;26.37;57.67;100474.06;10349626;28;20062;-64
2021/07/16 10:36:45;;;;;;;6.83;6.13;;;;;;;25.89;56.89;100489.06;10360024;28;20054;-65
2021/07/16 10:41:46;;;;;;;6.53;5.93;;;;;;;24.69;60.63;100487.56;10361172;28;20056;-66
2021/07/16 10:46:48;;;;;;;5.88;5.38;;;;;;;24.94;60.73;100487.75;10361881;28;20050;-65
2021/07/16 10:52:02;;;;;;;6.50;5.90;;;;;;;24.97;60.46;100491.94;10359009;28;20046;-65
2021/07/16 10:57:13;;;;;;;7.03;5.45;;;;;;;25.05;60.03;100495.25;10357151;28;20053;-67
2021/07/16 11:02:44;;;;;;;5.38;4.88;;;;;;;26.43;58.17;100500.47;10349995;28;20053;-65
2021/07/16 11:07:46;;;;;;;5.45;4.90;;;;;;;27.11;54.74;100479.69;10357890;28;20125;-65
2021/07/16 11:12:47;;;;;;;5.15;4.65;;;;;;;28.13;51.39;100492.66;10357439;28;20405;-66
2021/07/16 11:17:55;;;;;;;4.55;4.10;;;;;;;28.53;50.08;100492.03;10358762;28;20416;-67
2021/07/16 11:23:01;;;;;;;4.93;3.85;;;;;;;29.25;48.06;100487.41;10354572;28;20042;-68
2021/07/16 11:28:08;;;;;;;4.72;3.90;;;;;;;28.86;48.75;100474.19;10355166;28;20096;-66
2021/07/16 11:33:11;;;;;;;6.07;5.47;;;;;;;28.08;47.99;100450.69;10347298;28;20050;-68
2021/07/16 11:38:13;;;;;;;4.55;4.15;;;;;;;28.27;49.65;100476.03;10350977;28;20050;-67
2021/07/16 11:43:15;;;;;;;4.38;4.03;;;;;;;28.77;48.27;100470.16;10358846;28;20096;-67
2021/07/16 11:48:18;;;;;;;3.47;3.17;;;;;;;28.64;47.31;100465.75;10361046;28;20109;-67
2021/07/16 11:53:23;;;;;;;4.22;3.83;;;;;;;27.53;50.98;100466.16;10355221;28;20057;-65
2021/07/16 11:58:25;;;;;;;3.33;3.13;;;;;;;26.76;53.53;100461.97;10348822;28;20057;-65
2021/07/16 12:03:29;;;;;;;4.23;2.70;;;;;;;27.60;52.23;100461.44;10365285;28;20353;-65
2021/07/16 12:08:31;;;;;;;2.35;2.10;;;;;;;28.29;50.29;100466.53;10358789;28;20125;-65
2021/07/16 12:13:34;;;;;;;3.27;2.63;;;;;;;28.18;49.91;100473.66;10364821;28;20233;-65
2021/07/16 12:18:37;;;;;;;3.22;2.95;;;;;;;27.92;50.06;100479.50;10362253;28;20486;-65
2021/07/16 12:23:40;;;;;;;3.03;2.78;;;;;;;28.37;48.99;100495.47;10359976;28;20042;-66
2021/07/16 12:28:42;;;;;;;4.10;2.95;;;;;;;28.32;48.17;100501.66;10361161;28;20061;-64
2021/07/16 12:33:46;;;;;;;3.20;2.80;;;;;;;28.12;48.57;100474.59;10355577;28;20512;-65
2021/07/16 12:38:47;;;;;;;2.95;2.75;;;;;;;28.52;48.53;100468.44;10358269;28;20104;-65
2021/07/16 12:43:50;;;;;;;3.67;3.00;;;;;;;29.05;47.53;100476.78;10356414;28;20053;-65
2021/07/16 12:48:51;;;;;;;;;;;;;;;28.96;46.40;100478.22;10370741;28;20050;-64
2021/07/16 12:53:56;;;;;;;3.03;2.80;;;;;;;28.55;47.64;100468.00;10370283;28;19921;-71
2021/07/16 12:58:59;;;;;;;3.65;2.88;;;;;;;28.95;47.01;100471.09;10362064;28;20750;-65
2021/07/16 13:04:12;;;;;;;3.88;2.33;;;;;;;29.37;45.76;100474.50;10363440;28;20052;-66
2021/07/16 13:09:22;;;;;;;2.63;2.17;;;;;;;29.47;45.98;100479.34;10365464;28;20056;-65
2021/07/16 13:14:29;;;;;;;2.70;2.50;;;;;;;29.05;45.76;100482.25;10360052;28;20049;-66
2021/07/16 13:19:31;;;;;;;2.67;2.47;;;;;;;28.72;46.36;100479.09;10365691;28;20049;-67
2021/07/16 13:24:32;;;;;;;2.97;2.77;;;;;;;28.05;47.36;100479.34;10360601;28;20094;-64
2021/07/16 13:29:34;;;;;;;3.67;3.38;;;;;;;27.90;47.88;100451.56;10355912;28;20129;-66
2021/07/16 13:34:36;;;;;;;3.23;2.40;;;;;;;27.91;47.66;100459.53;10359487;28;20053;-68
2021/07/16 13:39:38;;;;;;;2.55;2.35;;;;;;;27.58;48.79;100469.06;10357210;28;20281;-66
2021/07/16 13:44:40;;;;;;;3.58;3.22;;;;;;;27.87;48.92;100450.94;10362107;28;20068;-67
2021/07/16 13:49:43;;;;;;;3.17;2.87;;;;;;;28.18;47.88;100467.38;10363731;28;20508;-65
2021/07/16 13:54:44;;;;;;;2.95;2.65;;;;;;;28.07;46.78;100458.03;10363483;28;20052;-65
2021/07/16 13:59:46;;;;;;;2.20;2.00;;;;;;;27.82;48.50;100459.03;10356292;28;20042;-65
2021/07/16 14:04:48;;;;;;;3.63;2.80;;;;;;;27.65;47.57;100485.34;10356316;28;20135;-65
2021/07/16 14:09:49;;;;;;;2.43;2.23;;;;;;;27.60;47.28;100477.84;10361310;28;20675;-65
2021/07/16 14:14:51;;;;;;;2.95;2.60;;;;;;;27.63;47.58;100471.09;10373324;28;20069;-65
2021/07/16 14:19:53;;;;;;;4.00;2.50;;;;;;;27.71;48.21;100467.19;10354003;28;20509;-64
2021/07/16 14:24:55;;;;;;;2.75;2.55;;;;;;;27.49;49.02;100473.16;10356317;28;20045;-66
2021/07/16 14:29:56;;;;;;;3.10;2.80;;;;;;;27.35;49.73;100483.41;10359281;28;20412;-65
2021/07/16 14:34:58;;;;;;;2.90;2.63;;;;;;;27.27;49.37;100472.78;10352431;28;20042;-65
2021/07/16 14:40:00;;;;;;;2.67;2.47;;;;;;;27.68;49.49;100490.34;10358383;28;20050;-67
2021/07/16 14:45:04;;;;;;;2.90;2.30;;;;;;;27.40;49.62;100489.03;10346546;28;20075;-65
2021/07/16 14:50:07;;;;;;;2.80;2.60;;;;;;;27.24;50.15;100495.09;10350261;28;20050;-66
2021/07/16 14:55:08;;;;;;;;;;;;;;;27.30;50.10;100486.81;10357654;28;20198;-66
2021/07/16 15:00:14;;;;;;;3.20;2.70;;;;;;;26.76;51.55;100489.28;10358686;28;19921;-67
2021/07/16 15:05:15;;;;;;;3.00;2.80;;;;;;;26.51;52.38;100469.34;10352253;28;20053;-69
2021/07/16 15:10:17;;;;;;;3.40;3.10;;;;;;;26.57;52.98;100485.66;10339780;28;20052;-66
2021/07/16 15:15:19;;;;;;;4.10;2.90;;;;;;;26.51;52.20;100485.72;10345040;28;20408;-66
2021/07/16 15:20:21;;;;;;;3.65;3.22;;;;;;;26.54;51.76;100493.44;10345164;28;20057;-66
2021/07/16 15:25:22;;;;;;;4.05;3.28;;;;;;;26.39;52.30;100472.81;10346389;28;20133;-65
2021/07/16 15:30:28;;;;;;;3.60;3.30;;;;;;;26.17;52.91;100463.34;10347660;28;20046;-65
2021/07/16 15:35:29;;;;;;;5.75;3.40;;;;;;;26.32;52.84;100477.47;10348304;28;20054;-66
2021/07/16 15:40:32;;;;;;;4.63;3.13;;;;;;;26.26;52.45;100489.28;10348974;28;20042;-66
2021/07/16 15:45:43;;;;;;;3.58;2.80;;;;;;;26.20;52.28;100484.72;10346878;28;20048;-67
2021/07/16 15:50:45;;;;;;;3.00;2.70;;;;;;;26.14;52.24;100491.03;10345163;28;20065;-65
2021/07/16 15:55:46;;;;;;;3.53;3.33;;;;;;;25.98;52.17;100487.75;10347849;28;20049;-66
2021/07/16 16:00:48;;;;;;;6.18;3.08;;;;;;;25.99;52.24;100494.91;10334688;28;20041;-66
2021/07/16 16:05:50;;;;;;;3.47;3.17;;;;;;;25.77;53.03;100500.66;10335768;28;20586;-67
2021/07/16 16:10:52;;;;;;;3.33;3.10;;;;;;;25.60;53.72;100491.34;10325153;28;20053;-66
2021/07/16 16:15:54;;;;;;;3.85;3.55;;;;;;;25.25;53.94;100472.56;10342922;28;20042;-66
2021/07/16 16:20:56;;;;;;;4.17;3.73;;;;;;;25.46;54.13;100500.59;10374014;22;20421;-67
2021/07/16 16:25:58;;;;;;;4.30;3.33;;;;;;;25.63;53.54;100499.06;10387398;28;20061;-68
2021/07/16 16:31:00;;;;;;;3.42;2.95;;;;;;;25.60;53.26;100502.22;10360013;28;20064;-70
2021/07/16 16:36:04;;;;;;;3.58;3.28;;;;;;;25.32;52.93;100508.00;10338169;28;20050;-69
2021/07/16 16:41:06;;;;;;;4.63;4.20;;;;;;;25.38;53.10;100510.69;10337726;28;20065;-69
2021/07/16 16:46:08;;;;;;;5.05;3.00;;;;;;;25.47;53.03;100508.56;10333506;28;20050;-70
2021/07/16 16:51:09;;;;;;;3.50;3.13;;;;;;;25.51;52.51;100514.44;10330382;28;20065;-69
2021/07/16 16:56:11;;;;;;;4.25;3.42;;;;;;;25.52;53.24;100521.53;10331399;28;20061;-70
2021/07/16 17:01:12;;;;;;;3.53;3.22;;;;;;;25.42;52.64;100527.47;10334446;28;20061;-69
2021/07/16 17:06:14;;;;;;;3.60;3.30;;;;;;;25.26;53.70;100526.00;10296960;28;20039;-69
2021/07/16 17:11:15;;;;;;;6.00;4.60;;;;;;;25.19;54.62;100525.19;10290679;28;20054;-70
2021/07/16 17:16:17;;;;;;;5.68;4.63;;;;;;;25.09;55.41;100532.97;10293473;28;20046;-69
2021/07/16 17:21:19;;;;;;;4.70;4.30;;;;;;;24.81;55.66;100523.16;10289745;28;20448;-69
2021/07/16 17:26:21;;;;;;;3.92;3.63;;;;;;;24.67;55.87;100525.88;10288484;28;20050;-70
2021/07/16 17:31:23;;;;;;;6.38;4.72;;;;;;;24.64;57.10;100529.03;10296111;28;20053;-70
2021/07/16 17:36:25;;;;;;;6.78;5.03;;;;;;;24.67;57.58;100536.78;10298315;28;20054;-70
2021/07/16 17:41:26;;;;;;;5.57;5.07;;;;;;;24.46;58.19;100545.94;10294365;28;20054;-72
2021/07/16 17:46:28;;;;;;;7.35;5.88;;;;;;;24.23;58.54;100543.63;10293410;28;20050;-71
2021/07/16 17:51:30;;;;;;;7.57;5.78;;;;;;;24.17;58.77;100547.19;10293768;28;20061;-71
2021/07/16 17:56:31;;;;;;;6.97;6.07;;;;;;;24.19;60.27;100553.25;10295398;28;20059;-70
2021/07/16 18:01:33;;;;;;;6.70;6.00;;;;;;;24.18;59.97;100565.16;10289408;28;20058;-70
2021/07/16 18:06:35;;;;;;;6.40;5.65;;;;;;;24.15;59.89;100571.00;10295286;28;20780;-70
2021/07/16 18:11:36;;;;;;;5.90;5.38;;;;;;;24.08;59.85;100562.84;10297655;28;20065;-70
2021/07/16 18:16:38;;;;;;;6.30;5.72;;;;;;;23.91;60.25;100565.06;10290858;28;20050;-70
2021/07/16 18:21:39;;;;;;;7.93;6.00;;;;;;;23.62;60.67;100583.31;10290205;28;20050;-70
2021/07/16 18:26:41;;;;;;;8.48;7.03;;;;;;;23.62;61.16;100566.19;10289808;28;20046;-70
2021/07/16 18:31:44;;;;;;;7.93;7.05;;;;;;;23.54;60.90;100578.06;10290814;28;20055;-68
2021/07/16 18:36:46;;;;;;;6.57;5.90;;;;;;;23.30;61.52;100584.84;10291781;28;20054;-70
2021/07/16 18:41:48;;;;;;;7.43;6.67;;;;;;;23.14;62.42;100585.13;10288828;28;20301;-70
2021/07/16 18:46:50;;;;;;;7.60;6.85;;;;;;;23.08;62.63;100592.16;10293756;28;20811;-68
2021/07/16 18:51:52;;;;;;;8.00;7.20;;;;;;;23.09;62.57;100591.13;10292474;28;20054;-70
2021/07/16 18:56:53;;;;;;;8.00;7.00;;;;;;;23.04;62.69;100602.56;10293313;28;20097;-70
2021/07/16 19:01:57;;;;;;;7.85;6.90;;;;;;;22.84;62.18;100607.84;10293423;28;20075;-70
2021/07/16 19:06:59;;;;;;;;;;;;;;;22.52;64.09;100610.06;10309014;28;20063;-68
2021/07/16 19:12:01;;;;;;;7.85;7.05;;;;;;;22.54;64.25;100610.69;10296695;28;19929;-68
2021/07/16 19:17:03;;;;;;;8.48;7.55;;;;;;;22.69;63.59;100626.91;10286317;28;20063;-69
2021/07/16 19:22:05;;;;;;;8.00;7.23;;;;;;;22.68;63.43;100638.78;10286103;28;20054;-68
2021/07/16 19:27:07;;;;;;;9.88;7.68;;;;;;;22.63;64.08;100645.84;10291372;28;20057;-68
2021/07/16 19:32:08;;;;;;;9.30;8.45;;;;;;;22.59;64.26;100665.22;10292019;28;20046;-68
2021/07/16 19:37:10;;;;;;;9.18;8.27;;;;;;;22.61;63.75;100667.75;10291988;28;20445;-68
2021/07/16 19:42:11;;;;;;;9.43;7.70;;;;;;;22.44;64.42;100671.72;10291804;28;20089;-68
2021/07/16 19:47:13;;;;;;;10.20;8.50;;;;;;;22.35;64.11;100677.28;10292489;28;20054;-68
2021/07/16 19:52:15;;;;;;;8.73;7.80;;;;;;;22.27;64.19;100687.34;10290891;28;20047;-68
2021/07/16 19:57:17;;;;;;;10.57;7.82;;;;;;;22.22;64.14;100691.47;10280916;28;20445;-68
2021/07/16 20:02:20;;;;;;;;;;;;;;;22.32;64.40;100704.75;10269901;28;20043;-68
2021/07/16 20:07:28;;;;;;;9.27;7.82;;;;;;;22.28;63.90;100708.00;10265127;28;19928;-68
2021/07/16 20:12:30;;;;;;;10.00;7.88;;;;;;;22.27;64.50;100709.03;10266436;28;20710;-70
2021/07/16 20:17:32;;;;;;;11.60;7.70;;;;;;;22.28;64.25;100716.97;10266521;28;20061;-68
2021/07/16 20:22:36;;;;;;;8.70;7.90;;;;;;;22.30;64.01;100723.03;10269807;28;20551;-68
2021/07/16 20:27:38;;;;;;;8.15;7.35;;;;;;;22.19;64.23;100718.13;10270390;28;20486;-68
2021/07/16 20:32:40;;;;;;;8.68;7.78;;;;;;;22.21;64.33;100722.31;10286708;28;20062;-68
2021/07/16 20:37:42;;;;;;;9.18;7.03;;;;;;;22.20;64.14;100726.06;10313078;28;20057;-68
2021/07/16 20:42:44;;;;;;;7.13;6.45;;;;;;;22.21;64.21;100732.31;10310129;28;20513;-68
2021/07/16 20:47:46;;;;;;;8.13;7.25;;;;;;;22.08;64.92;100732.97;10311427;28;20070;-69
2021/07/16 20:52:48;;;;;;;7.68;6.88;;;;;;;22.03;64.85;100730.00;10310325;28;20046;-68
2021/07/16 20:57:50;;;;;;;9.20;6.88;;;;;;;22.00;64.62;100725.78;10311222;28;20058;-69
2021/07/16 21:02:52;;;;;;;10.85;6.63;;;;;;;21.99;65.20;100737.66;10313526;28;20049;-69
2021/07/16 21:07:54;;;;;;;8.43;7.25;;;;;;;21.84;66.00;100737.66;10320850;28;20061;-69
2021/07/16 21:12:55;;;;;;;8.85;7.13;;;;;;;21.87;65.62;100737.28;10309772;28;20417;-69
2021/07/16 21:18:04;;;;;;;9.25;6.88;;;;;;;21.75;65.55;100749.59;10313969;28;20105;-68
2021/07/16 21:23:05;;;;;;;10.30;7.85;;;;;;;21.81;66.42;100754.28;10308983;28;20101;-68
2021/07/16 21:28:07;;;;;;;9.30;8.07;;;;;;;21.82;65.87;100758.66;10307481;28;20531;-69
2021/07/16 21:33:10;;;;;;;7.97;7.18;;;;;;;21.72;66.00;100766.22;10307882;28;20057;-68
2021/07/16 21:38:12;;;;;;;9.55;6.13;;;;;;;21.71;65.86;100769.97;10309735;28;20057;-69
2021/07/16 21:43:13;;;;;;;8.30;6.75;;;;;;;21.54;66.50;100775.53;10312785;28;20064;-67
2021/07/16 21:48:15;;;;;;;8.70;6.35;;;;;;;21.30;67.83;100778.41;10312576;28;20046;-67
2021/07/16 21:53:17;;;;;;;8.15;6.78;;;;;;;21.36;67.25;100767.72;10308017;28;20054;-67
2021/07/16 21:58:18;;;;;;;9.57;6.50;;;;;;;21.36;67.36;100777.69;10308170;28;20053;-67
2021/07/16 22:03:20;;;;;;;7.25;6.57;;;;;;;21.32;67.67;100779.09;10307603;28;20047;-66
2021/07/16 22:08:22;;;;;;;8.18;6.20;;;;;;;21.18;68.21;100784.25;10308381;28;20046;-67
2021/07/16 22:13:23;;;;;;;8.20;6.80;;;;;;;21.15;68.33;100775.63;10308245;28;20046;-67
2021/07/16 22:18:26;;;;;;;10.20;6.50;;;;;;;21.29;67.88;100785.69;10308625;28;20136;-67
2021/07/16 22:23:27;;;;;;;9.98;7.57;;;;;;;21.19;68.56;100794.03;10345932;23;20566;-70
2021/07/16 22:28:29;;;;;;;9.02;8.02;;;;;;;21.15;68.65;100787.31;10318481;28;20057;-69
2021/07/16 22:33:30;;;;;;;9.25;7.35;;;;;;;21.18;68.13;100780.69;10311678;28;20046;-70
2021/07/16 22:38:33;;;;;;;11.32;8.38;;;;;;;21.17;68.19;100790.69;10315105;28;20054;-69
2021/07/16 22:43:34;;;;;;;12.38;8.07;;;;;;;21.14;67.83;100791.03;10313350;28;20353;-68
2021/07/16 22:48:36;;;;;;;8.43;7.53;;;;;;;21.15;67.75;100787.31;10323089;28;20064;-69
2021/07/16 22:53:37;;;;;;;9.40;8.10;;;;;;;21.10;68.14;100786.19;10312935;28;20626;-68
2021/07/16 22:58:39;;;;;;;15.25;8.82;;;;;;;21.09;68.06;100789.91;10304750;28;20415;-67
2021/07/16 23:03:41;;;;;;;9.65;8.27;;;;;;;21.09;68.08;100793.47;10310092;28;20046;-69
2021/07/16 23:08:44;;;;;;;10.63;8.43;;;;;;;21.10;67.91;100789.72;10308231;28;20120;-69